sensor_id;sensor_type;location;lat;lon;timestamp;P1;durP1;ratioP1;P2;durP2;ratioP2
68144;SDS011;55400;51.824;-0.196;2023-04-29T00:01:32;9.40;;;7.70;;
68144;SDS011;55400;51.824;-0.196;2023-04-29T00:05:32;9.70;;;7.60;;
68144;SDS011;55400;51.824;-0.196;2023-04-29T00:09:32;8.60;;;7.60;;
68144;SDS011;55400;51.824;-0.196;2023-04-29T00:17:32;10.00;;;8.60;;
68144;SDS011;55400;51.824;-0.196;2023-04-29T00:21:32;11.80;;;8.30;;
68144;SDS011;55400;51.824;-0.196;2023-04-29T00:25:32;10.70;;;8.10;;
68144;SDS011;55400;51.824;-0.196;2023-04-29T00:29:32;9.20;;;8.00;;
68144;SDS011;55400;51.824;-0.196;2023-04-29T00:33:32;11.10;;;8.00;;
68144;SDS011;55400;51.824;-0.196;2023-04-29T00:37:32;9.70;;;7.80;;
68144;SDS011;55400;51.824;-0.196;2023-04-29T00:41:32;11.30;;;7.60;;
68144;SDS011;55400;51.824;-0.196;2023-04-29T00:45:32;8.90;;;7.60;;
68144;SDS011;55400;51.824;-0.196;2023-04-29T00:49:32;9.90;;;8.60;;
68144;SDS011;55400;51.824;-0.196;2023-04-29T00:53:32;11.10;;;8.00;;
68144;SDS011;55400;51.824;-0.196;2023-04-29T00:57:33;11.10;;;8.20;;
68144;SDS011;55400;51.824;-0.196;2023-04-29T01:01:33;11.40;;;8.30;;
68144;SDS011;55400;51.824;-0.196;2023-04-29T01:05:32;10.00;;;8.40;;
68144;SDS011;55400;51.824;-0.196;2023-04-29T01:09:45;12.30;;;8.20;;
68144;SDS011;55400;51.824;-0.196;2023-04-29T01:13:39;9.70;;;8.00;;
68144;SDS011;55400;51.824;-0.196;2023-04-29T01:17:36;10.40;;;8.30;;
68144;SDS011;55400;51.824;-0.196;2023-04-29T01:21:46;10.60;;;8.50;;
68144;SDS011;55400;51.824;-0.196;2023-04-29T01:25:32;13.40;;;8.60;;
68144;SDS011;55400;51.824;-0.196;2023-04-29T01:29:39;10.60;;;8.30;;
68144;SDS011;55400;51.824;-0.196;2023-04-29T01:33:39;10.00;;;8.70;;
68144;SDS011;55400;51.824;-0.196;2023-04-29T01:37:38;11.20;;;8.80;;
68144;SDS011;55400;51.824;-0.196;2023-04-29T01:41:36;12.20;;;9.00;;
68144;SDS011;55400;51.824;-0.196;2023-04-29T01:45:33;11.50;;;9.20;;
68144;SDS011;55400;51.824;-0.196;2023-04-29T01:49:34;10.80;;;9.10;;
68144;SDS011;55400;51.824;-0.196;2023-04-29T01:53:33;12.10;;;9.40;;
68144;SDS011;55400;51.824;-0.196;2023-04-29T01:57:33;11.40;;;9.50;;
68144;SDS011;55400;51.824;-0.196;2023-04-29T02:01:33;10.70;;;9.50;;
68144;SDS011;55400;51.824;-0.196;2023-04-29T02:05:33;11.80;;;9.70;;
68144;SDS011;55400;51.824;-0.196;2023-04-29T02:09:33;12.30;;;9.70;;
68144;SDS011;55400;51.824;-0.196;2023-04-29T02:13:33;11.20;;;9.70;;
68144;SDS011;55400;51.824;-0.196;2023-04-29T02:17:33;9.90;;;8.10;;
68144;SDS011;55400;51.824;-0.196;2023-04-29T02:21:33;10.60;;;7.90;;
68144;SDS011;55400;51.824;-0.196;2023-04-29T02:25:33;10.90;;;8.10;;
68144;SDS011;55400;51.824;-0.196;2023-04-29T02:29:33;9.30;;;7.50;;
68144;SDS011;55400;51.824;-0.196;2023-04-29T02:33:33;10.40;;;7.20;;
68144;SDS011;55400;51.824;-0.196;2023-04-29T02:41:33;7.20;;;6.40;;
68144;SDS011;55400;51.824;-0.196;2023-04-29T02:45:33;7.40;;;6.30;;
68144;SDS011;55400;51.824;-0.196;2023-04-29T02:49:33;9.50;;;6.90;;
68144;SDS011;55400;51.824;-0.196;2023-04-29T02:53:33;8.80;;;7.10;;
68144;SDS011;55400;51.824;-0.196;2023-04-29T02:57:33;9.10;;;7.30;;
68144;SDS011;55400;51.824;-0.196;2023-04-29T03:01:33;10.30;;;8.00;;
68144;SDS011;55400;51.824;-0.196;2023-04-29T03:05:33;10.80;;;8.70;;
68144;SDS011;55400;51.824;-0.196;2023-04-29T03:09:33;9.30;;;7.60;;
68144;SDS011;55400;51.824;-0.196;2023-04-29T03:13:33;10.00;;;8.20;;
68144;SDS011;55400;51.824;-0.196;2023-04-29T03:17:33;9.50;;;7.20;;
68144;SDS011;55400;51.824;-0.196;2023-04-29T03:21:33;8.90;;;6.80;;
68144;SDS011;55400;51.824;-0.196;2023-04-29T03:25:33;8.80;;;7.50;;
68144;SDS011;55400;51.824;-0.196;2023-04-29T03:29:33;9.10;;;7.20;;
68144;SDS011;55400;51.824;-0.196;2023-04-29T03:33:33;8.20;;;6.60;;
68144;SDS011;55400;51.824;-0.196;2023-04-29T03:41:34;7.30;;;6.50;;
68144;SDS011;55400;51.824;-0.196;2023-04-29T03:45:33;9.20;;;6.40;;
68144;SDS011;55400;51.824;-0.196;2023-04-29T03:49:33;8.50;;;7.20;;
68144;SDS011;55400;51.824;-0.196;2023-04-29T03:53:33;9.40;;;7.70;;
68144;SDS011;55400;51.824;-0.196;2023-04-29T03:57:33;11.50;;;7.90;;
68144;SDS011;55400;51.824;-0.196;2023-04-29T04:01:33;10.50;;;8.20;;
68144;SDS011;55400;51.824;-0.196;2023-04-29T04:09:33;9.50;;;8.10;;
68144;SDS011;55400;51.824;-0.196;2023-04-29T04:13:33;9.90;;;8.00;;
68144;SDS011;55400;51.824;-0.196;2023-04-29T04:17:33;9.80;;;6.60;;
68144;SDS011;55400;51.824;-0.196;2023-04-29T04:21:34;8.50;;;6.90;;
68144;SDS011;55400;51.824;-0.196;2023-04-29T04:25:33;7.90;;;6.00;;
68144;SDS011;55400;51.824;-0.196;2023-04-29T04:29:33;7.40;;;6.60;;
68144;SDS011;55400;51.824;-0.196;2023-04-29T04:33:33;9.00;;;6.60;;
68144;SDS011;55400;51.824;-0.196;2023-04-29T04:41:33;9.10;;;7.00;;
68144;SDS011;55400;51.824;-0.196;2023-04-29T04:45:33;9.20;;;6.40;;
68144;SDS011;55400;51.824;-0.196;2023-04-29T04:53:33;10.40;;;7.40;;
68144;SDS011;55400;51.824;-0.196;2023-04-29T04:57:33;11.40;;;7.00;;
68144;SDS011;55400;51.824;-0.196;2023-04-29T05:01:33;9.50;;;6.70;;
68144;SDS011;55400;51.824;-0.196;2023-04-29T05:05:33;8.30;;;7.00;;
68144;SDS011;55400;51.824;-0.196;2023-04-29T05:09:33;11.70;;;8.40;;
68144;SDS011;55400;51.824;-0.196;2023-04-29T05:13:33;8.40;;;6.80;;
68144;SDS011;55400;51.824;-0.196;2023-04-29T05:17:33;9.00;;;6.80;;
68144;SDS011;55400;51.824;-0.196;2023-04-29T05:21:33;10.10;;;7.10;;
68144;SDS011;55400;51.824;-0.196;2023-04-29T05:29:33;9.10;;;7.10;;
68144;SDS011;55400;51.824;-0.196;2023-04-29T05:33:33;14.00;;;7.80;;
68144;SDS011;55400;51.824;-0.196;2023-04-29T05:37:33;11.20;;;8.80;;
68144;SDS011;55400;51.824;-0.196;2023-04-29T05:41:33;14.00;;;8.30;;
68144;SDS011;55400;51.824;-0.196;2023-04-29T05:45:33;11.70;;;8.80;;
68144;SDS011;55400;51.824;-0.196;2023-04-29T05:49:33;13.00;;;9.30;;
68144;SDS011;55400;51.824;-0.196;2023-04-29T05:53:33;12.00;;;8.40;;
68144;SDS011;55400;51.824;-0.196;2023-04-29T05:57:33;11.90;;;9.10;;
68144;SDS011;55400;51.824;-0.196;2023-04-29T06:01:33;15.10;;;9.80;;
68144;SDS011;55400;51.824;-0.196;2023-04-29T06:05:33;11.10;;;9.10;;
68144;SDS011;55400;51.824;-0.196;2023-04-29T06:09:33;13.80;;;10.00;;
68144;SDS011;55400;51.824;-0.196;2023-04-29T06:13:33;13.50;;;10.40;;
68144;SDS011;55400;51.824;-0.196;2023-04-29T06:17:33;12.60;;;9.80;;
68144;SDS011;55400;51.824;-0.196;2023-04-29T06:21:33;14.00;;;10.10;;
68144;SDS011;55400;51.824;-0.196;2023-04-29T06:25:33;14.00;;;10.00;;
68144;SDS011;55400;51.824;-0.196;2023-04-29T06:29:33;17.50;;;11.20;;
68144;SDS011;55400;51.824;-0.196;2023-04-29T06:33:33;15.60;;;10.00;;
68144;SDS011;55400;51.824;-0.196;2023-04-29T06:37:33;16.40;;;10.30;;
68144;SDS011;55400;51.824;-0.196;2023-04-29T06:41:33;15.70;;;10.40;;
68144;SDS011;55400;51.824;-0.196;2023-04-29T06:45:33;14.40;;;10.70;;
68144;SDS011;55400;51.824;-0.196;2023-04-29T06:49:33;15.20;;;11.00;;
68144;SDS011;55400;51.824;-0.196;2023-04-29T06:53:34;14.50;;;9.90;;
68144;SDS011;55400;51.824;-0.196;2023-04-29T06:57:33;16.70;;;9.80;;
68144;SDS011;55400;51.824;-0.196;2023-04-29T07:01:33;13.80;;;9.20;;
68144;SDS011;55400;51.824;-0.196;2023-04-29T07:05:33;13.30;;;9.30;;
68144;SDS011;55400;51.824;-0.196;2023-04-29T07:09:33;12.20;;;8.60;;
68144;SDS011;55400;51.824;-0.196;2023-04-29T07:13:33;13.70;;;8.40;;
68144;SDS011;55400;51.824;-0.196;2023-04-29T07:17:33;12.00;;;8.30;;
68144;SDS011;55400;51.824;-0.196;2023-04-29T07:21:33;12.70;;;8.00;;
68144;SDS011;55400;51.824;-0.196;2023-04-29T07:25:34;12.90;;;7.40;;
68144;SDS011;55400;51.824;-0.196;2023-04-29T07:29:33;13.10;;;8.20;;
68144;SDS011;55400;51.824;-0.196;2023-04-29T07:33:34;15.20;;;8.80;;
68144;SDS011;55400;51.824;-0.196;2023-04-29T07:37:33;14.30;;;8.40;;
68144;SDS011;55400;51.824;-0.196;2023-04-29T07:41:34;10.50;;;7.40;;
68144;SDS011;55400;51.824;-0.196;2023-04-29T07:45:33;13.00;;;7.40;;
68144;SDS011;55400;51.824;-0.196;2023-04-29T07:49:34;11.60;;;7.50;;
68144;SDS011;55400;51.824;-0.196;2023-04-29T07:53:33;8.80;;;6.00;;
68144;SDS011;55400;51.824;-0.196;2023-04-29T07:57:34;10.60;;;6.20;;
68144;SDS011;55400;51.824;-0.196;2023-04-29T08:01:34;10.50;;;5.90;;
68144;SDS011;55400;51.824;-0.196;2023-04-29T08:05:34;10.30;;;5.50;;
68144;SDS011;55400;51.824;-0.196;2023-04-29T08:09:34;7.90;;;5.50;;
68144;SDS011;55400;51.824;-0.196;2023-04-29T08:13:34;8.60;;;5.40;;
68144;SDS011;55400;51.824;-0.196;2023-04-29T08:17:34;9.40;;;5.80;;
68144;SDS011;55400;51.824;-0.196;2023-04-29T08:21:34;8.10;;;5.70;;
68144;SDS011;55400;51.824;-0.196;2023-04-29T08:25:34;9.70;;;5.90;;
68144;SDS011;55400;51.824;-0.196;2023-04-29T08:29:34;9.90;;;6.10;;
68144;SDS011;55400;51.824;-0.196;2023-04-29T08:33:34;8.80;;;5.80;;
68144;SDS011;55400;51.824;-0.196;2023-04-29T08:37:34;8.80;;;5.50;;
68144;SDS011;55400;51.824;-0.196;2023-04-29T08:41:35;7.80;;;5.00;;
68144;SDS011;55400;51.824;-0.196;2023-04-29T08:45:34;8.40;;;5.20;;
68144;SDS011;55400;51.824;-0.196;2023-04-29T08:49:34;7.80;;;4.90;;
68144;SDS011;55400;51.824;-0.196;2023-04-29T08:53:34;7.70;;;4.70;;
68144;SDS011;55400;51.824;-0.196;2023-04-29T08:57:35;5.80;;;4.50;;
68144;SDS011;55400;51.824;-0.196;2023-04-29T09:01:35;7.70;;;5.00;;
68144;SDS011;55400;51.824;-0.196;2023-04-29T09:05:34;8.10;;;5.00;;
68144;SDS011;55400;51.824;-0.196;2023-04-29T09:09:34;7.60;;;4.40;;
68144;SDS011;55400;51.824;-0.196;2023-04-29T09:13:34;5.70;;;3.80;;
68144;SDS011;55400;51.824;-0.196;2023-04-29T09:17:38;6.60;;;4.20;;
68144;SDS011;55400;51.824;-0.196;2023-04-29T09:21:34;6.80;;;4.30;;
68144;SDS011;55400;51.824;-0.196;2023-04-29T09:25:34;8.90;;;4.40;;
68144;SDS011;55400;51.824;-0.196;2023-04-29T09:29:34;6.20;;;3.80;;
68144;SDS011;55400;51.824;-0.196;2023-04-29T09:33:51;6.80;;;3.70;;
68144;SDS011;55400;51.824;-0.196;2023-04-29T09:37:34;3.10;;;2.80;;
68144;SDS011;55400;51.824;-0.196;2023-04-29T09:41:34;4.00;;;2.90;;
68144;SDS011;55400;51.824;-0.196;2023-04-29T09:45:34;4.20;;;3.00;;
68144;SDS011;55400;51.824;-0.196;2023-04-29T09:49:35;5.20;;;2.90;;
68144;SDS011;55400;51.824;-0.196;2023-04-29T09:53:34;6.50;;;3.70;;
68144;SDS011;55400;51.824;-0.196;2023-04-29T09:57:38;3.90;;;2.90;;
68144;SDS011;55400;51.824;-0.196;2023-04-29T10:01:34;5.50;;;3.40;;
68144;SDS011;55400;51.824;-0.196;2023-04-29T10:05:34;4.90;;;3.10;;
68144;SDS011;55400;51.824;-0.196;2023-04-29T10:09:36;4.40;;;3.00;;
68144;SDS011;55400;51.824;-0.196;2023-04-29T10:13:34;3.40;;;2.80;;
68144;SDS011;55400;51.824;-0.196;2023-04-29T10:17:39;3.40;;;2.80;;
68144;SDS011;55400;51.824;-0.196;2023-04-29T10:21:34;3.20;;;2.90;;
68144;SDS011;55400;51.824;-0.196;2023-04-29T10:25:35;6.30;;;3.20;;
68144;SDS011;55400;51.824;-0.196;2023-04-29T10:29:36;5.10;;;3.20;;
68144;SDS011;55400;51.824;-0.196;2023-04-29T10:33:35;4.10;;;3.10;;
68144;SDS011;55400;51.824;-0.196;2023-04-29T10:37:34;4.90;;;3.90;;
68144;SDS011;55400;51.824;-0.196;2023-04-29T10:41:41;6.30;;;3.70;;
68144;SDS011;55400;51.824;-0.196;2023-04-29T10:45:34;5.30;;;3.70;;
68144;SDS011;55400;51.824;-0.196;2023-04-29T10:49:34;4.50;;;3.60;;
68144;SDS011;55400;51.824;-0.196;2023-04-29T10:53:34;7.60;;;4.50;;
68144;SDS011;55400;51.824;-0.196;2023-04-29T10:57:34;6.80;;;3.80;;
68144;SDS011;55400;51.824;-0.196;2023-04-29T11:01:45;5.60;;;3.40;;
68144;SDS011;55400;51.824;-0.196;2023-04-29T11:05:35;7.20;;;3.80;;
68144;SDS011;55400;51.824;-0.196;2023-04-29T11:09:34;7.70;;;3.60;;
68144;SDS011;55400;51.824;-0.196;2023-04-29T11:13:37;5.70;;;3.80;;
68144;SDS011;55400;51.824;-0.196;2023-04-29T11:17:35;4.60;;;3.30;;
68144;SDS011;55400;51.824;-0.196;2023-04-29T11:21:35;5.40;;;3.70;;
68144;SDS011;55400;51.824;-0.196;2023-04-29T11:25:34;5.20;;;3.50;;
68144;SDS011;55400;51.824;-0.196;2023-04-29T11:29:34;4.60;;;3.40;;
68144;SDS011;55400;51.824;-0.196;2023-04-29T11:33:34;5.10;;;3.40;;
68144;SDS011;55400;51.824;-0.196;2023-04-29T11:37:35;6.00;;;3.50;;
68144;SDS011;55400;51.824;-0.196;2023-04-29T11:41:34;5.20;;;3.10;;
68144;SDS011;55400;51.824;-0.196;2023-04-29T11:45:34;3.50;;;2.60;;
68144;SDS011;55400;51.824;-0.196;2023-04-29T11:49:34;4.10;;;3.40;;
68144;SDS011;55400;51.824;-0.196;2023-04-29T11:53:34;4.90;;;3.30;;
68144;SDS011;55400;51.824;-0.196;2023-04-29T11:57:34;5.00;;;2.90;;
68144;SDS011;55400;51.824;-0.196;2023-04-29T12:01:35;3.60;;;2.80;;
68144;SDS011;55400;51.824;-0.196;2023-04-29T12:05:34;4.20;;;3.30;;
68144;SDS011;55400;51.824;-0.196;2023-04-29T12:09:41;5.60;;;3.00;;
68144;SDS011;55400;51.824;-0.196;2023-04-29T12:13:34;4.10;;;3.10;;
68144;SDS011;55400;51.824;-0.196;2023-04-29T12:17:35;3.60;;;2.80;;
68144;SDS011;55400;51.824;-0.196;2023-04-29T12:21:34;4.70;;;3.20;;
68144;SDS011;55400;51.824;-0.196;2023-04-29T12:25:34;3.70;;;2.50;;
68144;SDS011;55400;51.824;-0.196;2023-04-29T12:29:35;5.10;;;2.90;;
68144;SDS011;55400;51.824;-0.196;2023-04-29T12:33:34;3.40;;;2.80;;
68144;SDS011;55400;51.824;-0.196;2023-04-29T12:37:34;6.20;;;2.90;;
68144;SDS011;55400;51.824;-0.196;2023-04-29T12:41:35;3.40;;;2.70;;
68144;SDS011;55400;51.824;-0.196;2023-04-29T12:45:34;4.00;;;2.70;;
68144;SDS011;55400;51.824;-0.196;2023-04-29T12:49:35;2.70;;;2.50;;
68144;SDS011;55400;51.824;-0.196;2023-04-29T12:53:34;3.30;;;2.60;;
68144;SDS011;55400;51.824;-0.196;2023-04-29T12:57:34;3.70;;;2.60;;
68144;SDS011;55400;51.824;-0.196;2023-04-29T13:01:34;4.90;;;2.60;;
68144;SDS011;55400;51.824;-0.196;2023-04-29T13:05:35;2.80;;;2.50;;
68144;SDS011;55400;51.824;-0.196;2023-04-29T13:09:34;2.90;;;2.40;;
68144;SDS011;55400;51.824;-0.196;2023-04-29T13:13:34;3.00;;;2.10;;
68144;SDS011;55400;51.824;-0.196;2023-04-29T13:17:35;3.50;;;2.00;;
68144;SDS011;55400;51.824;-0.196;2023-04-29T13:21:35;2.40;;;2.20;;
68144;SDS011;55400;51.824;-0.196;2023-04-29T13:25:35;3.20;;;2.30;;
68144;SDS011;55400;51.824;-0.196;2023-04-29T13:29:34;3.00;;;2.20;;
68144;SDS011;55400;51.824;-0.196;2023-04-29T13:33:34;4.70;;;3.30;;
68144;SDS011;55400;51.824;-0.196;2023-04-29T13:37:35;3.10;;;2.60;;
68144;SDS011;55400;51.824;-0.196;2023-04-29T13:41:34;3.20;;;2.60;;
68144;SDS011;55400;51.824;-0.196;2023-04-29T13:45:35;3.70;;;2.30;;
68144;SDS011;55400;51.824;-0.196;2023-04-29T13:49:34;3.10;;;2.20;;
68144;SDS011;55400;51.824;-0.196;2023-04-29T13:53:35;3.20;;;2.30;;
68144;SDS011;55400;51.824;-0.196;2023-04-29T13:57:35;2.40;;;2.20;;
68144;SDS011;55400;51.824;-0.196;2023-04-29T14:01:35;4.30;;;2.50;;
68144;SDS011;55400;51.824;-0.196;2023-04-29T14:05:35;3.90;;;2.40;;
68144;SDS011;55400;51.824;-0.196;2023-04-29T14:09:35;4.20;;;2.60;;
68144;SDS011;55400;51.824;-0.196;2023-04-29T14:13:35;5.00;;;2.70;;
68144;SDS011;55400;51.824;-0.196;2023-04-29T14:17:35;7.00;;;2.50;;
68144;SDS011;55400;51.824;-0.196;2023-04-29T14:21:35;4.60;;;2.80;;
68144;SDS011;55400;51.824;-0.196;2023-04-29T14:25:35;5.20;;;2.60;;
68144;SDS011;55400;51.824;-0.196;2023-04-29T14:29:35;4.40;;;2.90;;
68144;SDS011;55400;51.824;-0.196;2023-04-29T14:33:35;4.00;;;2.90;;
68144;SDS011;55400;51.824;-0.196;2023-04-29T14:37:35;3.70;;;3.00;;
68144;SDS011;55400;51.824;-0.196;2023-04-29T14:41:35;6.90;;;3.10;;
68144;SDS011;55400;51.824;-0.196;2023-04-29T14:45:35;8.30;;;3.30;;
68144;SDS011;55400;51.824;-0.196;2023-04-29T14:49:35;5.60;;;4.10;;
68144;SDS011;55400;51.824;-0.196;2023-04-29T14:53:35;9.60;;;5.40;;
68144;SDS011;55400;51.824;-0.196;2023-04-29T14:57:35;10.70;;;5.50;;
68144;SDS011;55400;51.824;-0.196;2023-04-29T15:01:35;9.80;;;5.50;;
68144;SDS011;55400;51.824;-0.196;2023-04-29T15:05:35;7.20;;;4.40;;
68144;SDS011;55400;51.824;-0.196;2023-04-29T15:09:35;6.90;;;4.50;;
68144;SDS011;55400;51.824;-0.196;2023-04-29T15:13:35;7.50;;;4.90;;
68144;SDS011;55400;51.824;-0.196;2023-04-29T15:17:35;8.60;;;4.90;;
68144;SDS011;55400;51.824;-0.196;2023-04-29T15:21:35;8.60;;;4.90;;
68144;SDS011;55400;51.824;-0.196;2023-04-29T15:25:35;9.20;;;4.80;;
68144;SDS011;55400;51.824;-0.196;2023-04-29T15:29:35;6.80;;;4.30;;
68144;SDS011;55400;51.824;-0.196;2023-04-29T15:33:35;10.10;;;5.20;;
68144;SDS011;55400;51.824;-0.196;2023-04-29T15:37:35;8.90;;;5.00;;
68144;SDS011;55400;51.824;-0.196;2023-04-29T15:41:35;10.70;;;5.50;;
68144;SDS011;55400;51.824;-0.196;2023-04-29T15:45:35;7.60;;;4.90;;
68144;SDS011;55400;51.824;-0.196;2023-04-29T15:49:35;11.70;;;5.30;;
68144;SDS011;55400;51.824;-0.196;2023-04-29T15:53:35;12.30;;;5.20;;
68144;SDS011;55400;51.824;-0.196;2023-04-29T15:57:35;10.10;;;4.90;;
68144;SDS011;55400;51.824;-0.196;2023-04-29T16:01:35;7.60;;;5.00;;
68144;SDS011;55400;51.824;-0.196;2023-04-29T16:05:35;7.20;;;4.90;;
68144;SDS011;55400;51.824;-0.196;2023-04-29T16:09:35;8.50;;;5.10;;
68144;SDS011;55400;51.824;-0.196;2023-04-29T16:13:35;10.40;;;5.30;;
68144;SDS011;55400;51.824;-0.196;2023-04-29T16:17:35;13.50;;;6.00;;
68144;SDS011;55400;51.824;-0.196;2023-04-29T16:21:35;8.90;;;5.10;;
68144;SDS011;55400;51.824;-0.196;2023-04-29T16:25:35;9.20;;;5.10;;
68144;SDS011;55400;51.824;-0.196;2023-04-29T16:29:35;10.00;;;4.40;;
68144;SDS011;55400;51.824;-0.196;2023-04-29T16:33:35;10.10;;;4.90;;
68144;SDS011;55400;51.824;-0.196;2023-04-29T16:37:35;9.90;;;5.10;;
68144;SDS011;55400;51.824;-0.196;2023-04-29T16:41:35;11.10;;;5.10;;
68144;SDS011;55400;51.824;-0.196;2023-04-29T16:45:35;8.70;;;5.30;;
68144;SDS011;55400;51.824;-0.196;2023-04-29T16:49:35;13.30;;;5.60;;
68144;SDS011;55400;51.824;-0.196;2023-04-29T16:53:35;8.50;;;5.10;;
68144;SDS011;55400;51.824;-0.196;2023-04-29T16:57:35;9.70;;;5.30;;
68144;SDS011;55400;51.824;-0.196;2023-04-29T17:01:35;11.90;;;5.50;;
68144;SDS011;55400;51.824;-0.196;2023-04-29T17:05:36;11.90;;;5.40;;
68144;SDS011;55400;51.824;-0.196;2023-04-29T17:09:35;9.50;;;5.40;;
68144;SDS011;55400;51.824;-0.196;2023-04-29T17:13:36;11.90;;;5.00;;
68144;SDS011;55400;51.824;-0.196;2023-04-29T17:17:35;8.60;;;4.80;;
68144;SDS011;55400;51.824;-0.196;2023-04-29T17:21:35;10.70;;;4.50;;
68144;SDS011;55400;51.824;-0.196;2023-04-29T17:25:36;8.90;;;4.90;;
68144;SDS011;55400;51.824;-0.196;2023-04-29T17:29:35;10.00;;;5.10;;
68144;SDS011;55400;51.824;-0.196;2023-04-29T17:33:35;10.70;;;4.50;;
68144;SDS011;55400;51.824;-0.196;2023-04-29T17:37:35;9.80;;;4.00;;
68144;SDS011;55400;51.824;-0.196;2023-04-29T17:41:35;10.30;;;4.00;;
68144;SDS011;55400;51.824;-0.196;2023-04-29T17:49:35;8.70;;;3.50;;
68144;SDS011;55400;51.824;-0.196;2023-04-29T17:53:35;8.30;;;3.70;;
68144;SDS011;55400;51.824;-0.196;2023-04-29T17:57:35;9.70;;;3.40;;
68144;SDS011;55400;51.824;-0.196;2023-04-29T18:01:36;6.70;;;3.40;;
68144;SDS011;55400;51.824;-0.196;2023-04-29T18:05:35;8.30;;;3.90;;
68144;SDS011;55400;51.824;-0.196;2023-04-29T18:09:35;9.10;;;3.90;;
68144;SDS011;55400;51.824;-0.196;2023-04-29T18:10:37;9.10;;;3.90;;
68144;SDS011;55400;51.824;-0.196;2023-04-29T18:13:37;9.90;;;3.60;;
68144;SDS011;55400;51.824;-0.196;2023-04-29T18:17:35;6.40;;;3.00;;
68144;SDS011;55400;51.824;-0.196;2023-04-29T18:21:37;7.50;;;3.10;;
68144;SDS011;55400;51.824;-0.196;2023-04-29T18:24:29;7.50;;;3.10;;
68144;SDS011;55400;51.824;-0.196;2023-04-29T18:25:36;7.00;;;3.00;;
68144;SDS011;55400;51.824;-0.196;2023-04-29T18:29:36;9.70;;;3.10;;
68144;SDS011;55400;51.824;-0.196;2023-04-29T18:33:35;8.20;;;2.70;;
68144;SDS011;55400;51.824;-0.196;2023-04-29T18:37:35;5.00;;;2.50;;
68144;SDS011;55400;51.824;-0.196;2023-04-29T18:43:11;6.10;;;2.50;;
68144;SDS011;55400;51.824;-0.196;2023-04-29T18:45:35;4.80;;;2.70;;
68144;SDS011;55400;51.824;-0.196;2023-04-29T18:49:35;6.70;;;3.00;;
68144;SDS011;55400;51.824;-0.196;2023-04-29T18:55:48;6.00;;;3.10;;
68144;SDS011;55400;51.824;-0.196;2023-04-29T18:57:35;7.80;;;3.40;;
68144;SDS011;55400;51.824;-0.196;2023-04-29T19:01:36;5.90;;;2.90;;
68144;SDS011;55400;51.824;-0.196;2023-04-29T19:05:35;6.10;;;3.00;;
68144;SDS011;55400;51.824;-0.196;2023-04-29T19:09:36;5.60;;;2.70;;
68144;SDS011;55400;51.824;-0.196;2023-04-29T19:13:36;6.80;;;2.70;;
68144;SDS011;55400;51.824;-0.196;2023-04-29T19:17:36;5.20;;;2.70;;
68144;SDS011;55400;51.824;-0.196;2023-04-29T19:21:36;7.00;;;2.80;;
68144;SDS011;55400;51.824;-0.196;2023-04-29T19:25:36;8.60;;;2.70;;
68144;SDS011;55400;51.824;-0.196;2023-04-29T21:55:02;10.00;;;5.70;;
68144;SDS011;55400;51.824;-0.196;2023-04-29T21:56:37;10.00;;;5.70;;
68144;SDS011;55400;51.824;-0.196;2023-04-29T22:00:37;10.90;;;5.90;;
68144;SDS011;55400;51.824;-0.196;2023-04-29T22:04:37;12.10;;;6.10;;
68144;SDS011;55400;51.824;-0.196;2023-04-29T22:08:37;17.30;;;6.00;;
68144;SDS011;55400;51.824;-0.196;2023-04-29T22:12:37;13.80;;;5.40;;
68144;SDS011;55400;51.824;-0.196;2023-04-29T22:16:37;12.30;;;6.10;;
68144;SDS011;55400;51.824;-0.196;2023-04-29T22:20:37;12.10;;;6.20;;
68144;SDS011;55400;51.824;-0.196;2023-04-29T22:24:37;12.20;;;6.10;;
68144;SDS011;55400;51.824;-0.196;2023-04-29T22:28:37;10.70;;;6.10;;
68144;SDS011;55400;51.824;-0.196;2023-04-29T22:32:37;13.40;;;6.10;;
68144;SDS011;55400;51.824;-0.196;2023-04-29T22:36:37;12.40;;;6.50;;
68144;SDS011;55400;51.824;-0.196;2023-04-29T22:40:37;13.80;;;6.50;;
68144;SDS011;55400;51.824;-0.196;2023-04-29T22:44:37;15.60;;;7.00;;
68144;SDS011;55400;51.824;-0.196;2023-04-29T22:48:37;11.40;;;7.30;;
68144;SDS011;55400;51.824;-0.196;2023-04-29T22:52:37;15.70;;;7.20;;
68144;SDS011;55400;51.824;-0.196;2023-04-29T22:56:37;15.20;;;7.90;;
68144;SDS011;55400;51.824;-0.196;2023-04-29T23:00:37;13.40;;;7.40;;
68144;SDS011;55400;51.824;-0.196;2023-04-29T23:04:37;15.50;;;8.00;;
68144;SDS011;55400;51.824;-0.196;2023-04-29T23:08:37;16.10;;;8.30;;
68144;SDS011;55400;51.824;-0.196;2023-04-29T23:12:37;13.50;;;7.90;;
68144;SDS011;55400;51.824;-0.196;2023-04-29T23:16:37;14.60;;;8.10;;
68144;SDS011;55400;51.824;-0.196;2023-04-29T23:20:37;13.20;;;7.90;;
68144;SDS011;55400;51.824;-0.196;2023-04-29T23:24:37;14.50;;;8.60;;
68144;SDS011;55400;51.824;-0.196;2023-04-29T23:28:37;14.80;;;8.30;;
68144;SDS011;55400;51.824;-0.196;2023-04-29T23:32:37;13.30;;;8.00;;
68144;SDS011;55400;51.824;-0.196;2023-04-29T23:36:37;14.60;;;8.30;;
68144;SDS011;55400;51.824;-0.196;2023-04-29T23:40:37;16.50;;;9.10;;
68144;SDS011;55400;51.824;-0.196;2023-04-29T23:44:37;17.70;;;9.70;;
68144;SDS011;55400;51.824;-0.196;2023-04-29T23:48:37;13.60;;;9.40;;
68144;SDS011;55400;51.824;-0.196;2023-04-29T23:52:37;15.50;;;9.50;;
68144;SDS011;55400;51.824;-0.196;2023-04-29T23:56:37;18.80;;;10.30;;
